createdAt,value
2022-11-27T00:01:15.959Z,59.53
2022-11-27T00:03:43.876Z,56.03
2022-11-27T00:06:16.366Z,60.80
2022-11-27T00:08:44.028Z,54.50
2022-11-27T00:11:13.825Z,56.97
2022-11-27T00:13:40.892Z,52.77
2022-11-27T00:16:08.677Z,61.93
2022-11-27T00:18:36.033Z,57.67
2022-11-27T00:21:08.173Z,56.03
2022-11-27T00:23:35.470Z,56.27
2022-11-27T00:26:02.754Z,59.43
2022-11-27T00:28:29.899Z,54.03
2022-11-27T00:31:01.015Z,53.63
2022-11-27T00:33:28.456Z,46.60
2022-11-27T00:35:55.540Z,49.30
2022-11-27T00:38:22.556Z,55.63
2022-11-27T00:40:49.641Z,51.13
2022-11-27T00:43:16.474Z,50.03
2022-11-27T00:45:43.488Z,52.10
2022-11-27T00:48:10.262Z,51.30
2022-11-27T00:50:37.321Z,46.03
2022-11-27T00:53:04.060Z,51.03
2022-11-27T00:55:31.269Z,43.60
2022-11-27T00:57:58.081Z,45.80
2022-11-27T01:00:25.120Z,47.53
2022-11-27T01:02:51.918Z,46.63
2022-11-27T01:05:19.028Z,48.23
2022-11-27T01:07:45.827Z,49.87
2022-11-27T01:10:12.871Z,44.87
2022-11-27T01:12:39.714Z,47.07
2022-11-27T01:15:07.486Z,47.27
2022-11-27T01:17:34.216Z,50.00
2022-11-27T01:20:01.323Z,47.50
2022-11-27T01:22:28.108Z,43.70
2022-11-27T01:24:55.111Z,51.87
2022-11-27T01:27:21.847Z,45.47
2022-11-27T01:29:48.938Z,43.83
2022-11-27T01:32:15.771Z,43.87
2022-11-27T01:34:42.796Z,43.80
2022-11-27T01:37:09.543Z,40.57
2022-11-27T01:39:36.697Z,45.30
2022-11-27T01:42:03.502Z,43.83
2022-11-27T01:44:33.290Z,51.10
2022-11-27T01:47:07.438Z,44.33
2022-11-27T01:49:39.962Z,48.97
2022-11-27T01:52:13.417Z,40.17
2022-11-27T01:54:45.694Z,45.73
2022-11-27T01:57:22.779Z,44.43
2022-11-27T01:59:51.354Z,46.27
2022-11-27T02:02:18.332Z,48.27
2022-11-27T02:04:45.822Z,43.53
2022-11-27T02:07:12.660Z,44.00
2022-11-27T02:09:40.167Z,46.13
2022-11-27T02:12:24.979Z,40.03
2022-11-27T02:14:54.876Z,43.50
2022-11-27T02:17:44.542Z,41.47
2022-11-27T02:20:21.766Z,38.53
2022-11-27T02:23:16.466Z,43.43
2022-11-27T02:26:07.825Z,37.53
2022-11-27T02:29:00.749Z,37.17
2022-11-27T02:31:47.647Z,40.83
2022-11-27T02:34:26.551Z,40.63
2022-11-27T02:37:09.852Z,44.83
2022-11-27T02:39:53.498Z,39.43
2022-11-27T02:42:21.133Z,46.47
2022-11-27T02:44:54.147Z,42.37
2022-11-27T02:47:21.427Z,36.63
2022-11-27T02:49:50.078Z,42.67
2022-11-27T02:52:18.043Z,45.53
2022-11-27T02:54:46.474Z,40.50
2022-11-27T02:57:14.163Z,44.40
2022-11-27T02:59:42.904Z,39.23
2022-11-27T03:02:15.144Z,43.90
2022-11-27T03:04:46.784Z,43.70
2022-11-27T03:07:18.305Z,44.80
2022-11-27T03:09:50.070Z,48.73
2022-11-27T03:12:18.036Z,43.47
2022-11-27T03:14:45.778Z,45.27
2022-11-27T03:17:32.705Z,48.30
2022-11-27T03:20:14.761Z,46.60
2022-11-27T03:22:42.290Z,44.67
2022-11-27T03:25:09.165Z,46.50
2022-11-27T03:27:43.336Z,49.80
2022-11-27T03:30:11.058Z,50.60
2022-11-27T03:32:38.250Z,53.40
2022-11-27T03:35:08.731Z,48.73
2022-11-27T03:37:36.173Z,50.57
2022-11-27T03:40:06.546Z,48.73
2022-11-27T03:42:40.511Z,50.43
2022-11-27T03:45:29.287Z,50.47
2022-11-27T03:48:19.081Z,55.60
2022-11-27T03:50:59.051Z,50.93
2022-11-27T03:53:47.312Z,47.13
2022-11-27T03:56:27.398Z,52.90
2022-11-27T03:58:54.426Z,49.10
2022-11-27T04:01:23.569Z,49.97
2022-11-27T04:03:50.670Z,46.87
2022-11-27T04:06:17.571Z,52.40
2022-11-27T04:08:46.916Z,50.70
2022-11-27T04:11:14.579Z,52.60
2022-11-27T04:13:41.606Z,45.57
2022-11-27T04:16:08.690Z,46.57
2022-11-27T04:18:35.751Z,44.00
2022-11-27T04:21:04.001Z,44.60
2022-11-27T04:23:31.087Z,51.07
2022-11-27T04:25:57.869Z,44.73
2022-11-27T04:28:24.923Z,49.17
2022-11-27T04:30:53.103Z,44.80
2022-11-27T04:33:20.331Z,43.27
2022-11-27T04:35:47.110Z,48.90
2022-11-27T04:38:14.198Z,44.50
2022-11-27T04:40:41.007Z,42.57
2022-11-27T04:43:08.325Z,40.17
2022-11-27T04:45:35.228Z,40.93
2022-11-27T04:48:02.299Z,36.70
2022-11-27T04:50:29.046Z,39.43
2022-11-27T04:52:56.916Z,35.80
2022-11-27T04:55:23.839Z,41.60
2022-11-27T04:57:51.006Z,37.53
2022-11-27T05:00:18.234Z,32.67
2022-11-27T05:02:45.387Z,33.53
2022-11-27T05:05:12.290Z,35.80
2022-11-27T05:07:39.401Z,34.67
2022-11-27T05:10:06.807Z,37.33
2022-11-27T05:12:34.132Z,35.87
2022-11-27T05:15:04.373Z,35.27
2022-11-27T05:17:31.990Z,39.33
2022-11-27T05:19:59.475Z,37.40
2022-11-27T05:22:26.496Z,39.60
2022-11-27T05:24:53.288Z,40.17
2022-11-27T05:27:20.307Z,38.97
2022-11-27T05:29:47.128Z,38.30
2022-11-27T05:32:14.408Z,39.07
2022-11-27T05:34:41.390Z,36.13
2022-11-27T05:37:08.713Z,33.27
2022-11-27T05:39:35.613Z,40.00
2022-11-27T05:42:02.675Z,36.03
2022-11-27T05:44:29.475Z,35.60
2022-11-27T05:46:57.326Z,35.37
2022-11-27T05:49:24.188Z,36.97
2022-11-27T05:51:51.901Z,37.00
2022-11-27T05:54:19.107Z,41.27
2022-11-27T05:56:46.208Z,40.97
2022-11-27T05:59:13.140Z,40.73
2022-11-27T06:01:40.202Z,41.50
2022-11-27T06:04:06.972Z,43.23
2022-11-27T06:06:33.989Z,46.87
2022-11-27T06:09:00.723Z,52.53
2022-11-27T06:11:27.859Z,42.53
2022-11-27T06:13:54.600Z,43.90
2022-11-27T06:16:23.605Z,40.13
2022-11-27T06:18:52.347Z,48.00
2022-11-27T06:21:20.587Z,45.97
2022-11-27T06:23:47.451Z,47.17
2022-11-27T06:26:19.751Z,47.67
2022-11-27T06:28:47.773Z,47.80
2022-11-27T06:31:18.606Z,47.50
2022-11-27T06:33:46.602Z,46.37
2022-11-27T06:36:13.728Z,48.33
2022-11-27T06:38:40.646Z,39.20
2022-11-27T06:41:12.967Z,47.87
2022-11-27T06:43:39.863Z,42.50
2022-11-27T06:46:09.474Z,45.20
2022-11-27T06:48:36.327Z,45.63
2022-11-27T06:51:05.628Z,48.77
2022-11-27T06:53:34.542Z,37.53
2022-11-27T06:56:12.390Z,41.83
2022-11-27T06:58:39.492Z,39.00
2022-11-27T07:01:10.368Z,50.73
2022-11-27T07:03:37.223Z,39.20
2022-11-27T07:06:06.809Z,46.97
2022-11-27T07:08:34.377Z,38.33
2022-11-27T07:11:06.531Z,43.93
2022-11-27T07:13:33.613Z,51.27
2022-11-27T07:16:01.944Z,45.80
2022-11-27T07:18:29.974Z,56.27
2022-11-27T07:20:57.085Z,54.00
2022-11-27T07:23:23.972Z,57.17
2022-11-27T07:25:51.091Z,43.57
2022-11-27T07:28:19.278Z,42.57
2022-11-27T07:30:46.488Z,43.27
2022-11-27T07:33:13.343Z,41.70
2022-11-27T07:35:40.689Z,47.30
2022-11-27T07:38:07.505Z,48.73
2022-11-27T07:40:34.525Z,40.37
2022-11-27T07:43:01.247Z,46.97
2022-11-27T07:45:28.694Z,36.20
2022-11-27T07:47:55.610Z,41.97
2022-11-27T07:50:22.786Z,44.47
2022-11-27T07:52:49.688Z,62.47
2022-11-27T07:55:16.728Z,47.37
2022-11-27T07:57:43.551Z,48.13
2022-11-27T08:00:11.416Z,46.20
2022-11-27T08:02:38.422Z,51.13
2022-11-27T08:05:12.113Z,49.63
2022-11-27T08:07:39.687Z,42.90
2022-11-27T08:10:07.569Z,43.70
2022-11-27T08:12:34.342Z,43.27
2022-11-27T08:15:01.594Z,44.63
2022-11-27T08:17:28.459Z,46.60
2022-11-27T08:19:55.499Z,41.13
2022-11-27T08:22:22.284Z,41.43
2022-11-27T08:24:51.620Z,50.73
2022-11-27T08:27:18.666Z,46.40
2022-11-27T08:29:45.743Z,41.20
2022-11-27T08:32:12.636Z,39.53
2022-11-27T08:34:40.070Z,42.97
2022-11-27T08:37:07.384Z,40.93
2022-11-27T08:39:34.413Z,43.13
2022-11-27T08:42:01.323Z,39.30
2022-11-27T08:44:28.344Z,37.93
2022-11-27T08:46:55.107Z,40.80
2022-11-27T08:49:22.160Z,43.60
2022-11-27T08:51:48.951Z,44.17
2022-11-27T08:54:16.241Z,46.77
2022-11-27T08:56:43.120Z,44.23
2022-11-27T08:59:10.484Z,40.70
2022-11-27T09:01:37.356Z,41.00
2022-11-27T09:04:04.759Z,42.50
2022-11-27T09:06:34.742Z,42.73
2022-11-27T09:09:04.507Z,41.23
2022-11-27T09:11:32.143Z,42.70
2022-11-27T09:14:00.512Z,41.50
2022-11-27T09:16:28.218Z,41.83
2022-11-27T09:18:55.618Z,38.87
2022-11-27T09:21:27.206Z,40.93
2022-11-27T09:23:55.418Z,40.27
2022-11-27T09:26:23.935Z,40.30
2022-11-27T09:28:52.363Z,41.93
2022-11-27T09:31:20.726Z,42.53
2022-11-27T09:33:47.850Z,48.27
2022-11-27T09:36:23.239Z,44.30
2022-11-27T09:38:50.690Z,48.20
2022-11-27T09:41:51.356Z,58.10
2022-11-27T09:44:29.800Z,46.47
2022-11-27T09:47:01.123Z,44.13
2022-11-27T09:49:36.791Z,55.07
2022-11-27T09:52:13.769Z,55.97
2022-11-27T09:54:56.500Z,48.70
2022-11-27T09:57:33.666Z,45.47
2022-11-27T10:00:12.412Z,33.50
2022-11-27T10:02:41.864Z,37.10
2022-11-27T10:05:21.879Z,36.13
2022-11-27T10:07:51.898Z,36.63
2022-11-27T10:10:57.017Z,38.80
2022-11-27T10:13:41.371Z,43.60
2022-11-27T10:16:22.520Z,44.70
2022-11-27T10:18:59.618Z,38.70
2022-11-27T10:21:41.830Z,39.70
2022-11-27T10:24:27.024Z,36.20
2022-11-27T10:26:57.402Z,32.07
2022-11-27T10:29:33.811Z,31.13
2022-11-27T10:32:05.449Z,32.00
2022-11-27T10:34:48.532Z,32.40
2022-11-27T10:37:24.047Z,32.50
2022-11-27T10:40:05.952Z,37.10
2022-11-27T10:42:36.167Z,33.30
2022-11-27T10:45:07.324Z,25.47
2022-11-27T10:47:34.728Z,36.43
2022-11-27T10:50:02.001Z,49.53
2022-11-27T10:52:29.219Z,32.33
2022-11-27T10:55:03.587Z,38.27
2022-11-27T10:58:04.087Z,37.00
2022-11-27T11:00:30.955Z,32.13
2022-11-27T11:03:05.776Z,39.87
2022-11-27T11:05:56.837Z,39.67
2022-11-27T11:08:22.248Z,31.43
2022-11-27T11:10:57.402Z,36.47
2022-11-27T11:13:29.003Z,38.80
2022-11-27T11:16:06.977Z,45.40
2022-11-27T11:18:42.619Z,39.17
2022-11-27T11:21:27.460Z,40.33
2022-11-27T11:24:07.124Z,40.90
2022-11-27T11:26:37.850Z,35.00
2022-11-27T11:29:07.246Z,30.43
2022-11-27T11:31:37.560Z,30.60
2022-11-27T11:34:14.454Z,33.40
2022-11-27T11:36:41.478Z,34.07
2022-11-27T11:39:20.693Z,51.87
2022-11-27T11:41:47.554Z,51.73
2022-11-27T11:44:23.856Z,30.37
2022-11-27T11:46:52.787Z,36.23
2022-11-27T11:49:27.637Z,36.70
2022-11-27T11:52:09.510Z,40.20
2022-11-27T11:55:00.648Z,36.73
2022-11-27T11:57:33.180Z,35.37
2022-11-27T12:00:12.037Z,29.70
2022-11-27T12:02:59.060Z,34.03
2022-11-27T12:05:35.153Z,30.33
2022-11-27T12:08:39.799Z,36.40
2022-11-27T12:11:16.269Z,44.57
2022-11-27T12:13:53.306Z,29.00
2022-11-27T12:16:34.250Z,31.03
2022-11-27T12:19:31.253Z,40.23
2022-11-27T12:22:06.570Z,37.33
2022-11-27T12:24:48.724Z,38.37
2022-11-27T12:27:45.186Z,38.77
2022-11-27T12:30:21.280Z,30.13
2022-11-27T12:33:09.971Z,32.13
2022-11-27T12:35:53.297Z,25.97
2022-11-27T12:38:42.523Z,30.40
2022-11-27T12:41:32.718Z,37.47
2022-11-27T12:44:02.568Z,30.37
2022-11-27T12:46:49.889Z,28.10
2022-11-27T12:49:46.377Z,59.63
2022-11-27T12:52:19.573Z,37.67
2022-11-27T12:54:54.563Z,31.87
2022-11-27T12:57:40.040Z,35.37
2022-11-27T13:00:24.329Z,33.43
2022-11-27T13:03:03.279Z,30.07
2022-11-27T13:05:35.018Z,40.53
2022-11-27T13:08:06.430Z,30.93
2022-11-27T13:10:52.672Z,38.90
2022-11-27T13:13:34.722Z,34.63
2022-11-27T13:16:25.308Z,33.57
2022-11-27T13:18:56.537Z,30.57
2022-11-27T13:21:27.504Z,30.30
2022-11-27T13:23:54.585Z,33.30
2022-11-27T13:26:27.460Z,28.63
2022-11-27T13:28:59.628Z,30.40
2022-11-27T13:31:31.716Z,34.13
2022-11-27T13:34:00.963Z,28.87
2022-11-27T13:36:36.061Z,30.93
2022-11-27T13:39:03.400Z,48.70
2022-11-27T13:41:43.774Z,34.23
2022-11-27T13:44:25.546Z,30.63
2022-11-27T13:46:54.955Z,34.43
2022-11-27T13:49:33.386Z,36.47
2022-11-27T13:52:14.663Z,34.83
2022-11-27T13:54:58.542Z,36.40
2022-11-27T13:57:26.633Z,41.23
2022-11-27T14:00:07.249Z,45.37
2022-11-27T14:02:44.733Z,46.00
2022-11-27T14:05:13.032Z,150.10
2022-11-27T14:07:59.461Z,245.80
2022-11-27T14:10:28.999Z,62.40
2022-11-27T14:13:06.451Z,56.90
2022-11-27T14:15:35.565Z,52.20
2022-11-27T14:18:13.877Z,45.77
2022-11-27T14:20:52.059Z,50.67
2022-11-27T14:23:33.755Z,59.17
2022-11-27T14:26:21.774Z,50.77
2022-11-27T14:28:51.691Z,54.60
2022-11-27T14:31:23.253Z,43.03
2022-11-27T14:34:14.431Z,37.37
2022-11-27T14:36:37.231Z,51.83
2022-11-27T14:39:05.155Z,75.73
2022-11-27T14:41:32.030Z,47.37
2022-11-27T14:44:04.927Z,50.33
2022-11-27T14:46:33.056Z,58.73
2022-11-27T14:49:00.171Z,45.20
2022-11-27T14:51:29.172Z,48.93
2022-11-27T14:54:01.846Z,43.13
2022-11-27T14:56:34.214Z,51.40
2022-11-27T14:59:01.856Z,61.17
2022-11-27T15:01:31.038Z,61.60
2022-11-27T15:04:37.032Z,59.47
2022-11-27T15:07:18.870Z,43.47
2022-11-27T15:09:48.817Z,59.50
2022-11-27T15:12:22.195Z,45.27
2022-11-27T15:14:59.034Z,45.03
2022-11-27T15:17:31.152Z,51.10
2022-11-27T15:19:59.231Z,73.07
2022-11-27T15:22:26.138Z,192.13
2022-11-27T15:25:07.373Z,84.23
2022-11-27T15:27:46.210Z,80.27
2022-11-27T15:30:17.603Z,63.20
2022-11-27T15:32:52.838Z,70.17
2022-11-27T15:35:28.597Z,76.83
2022-11-27T15:38:04.517Z,123.17
2022-11-27T15:40:39.865Z,119.27
2022-11-27T15:43:14.537Z,95.83
2022-11-27T15:45:43.491Z,91.20
2022-11-27T15:48:15.860Z,100.73
2022-11-27T15:50:48.231Z,110.60
2022-11-27T15:53:18.106Z,95.93
2022-11-27T15:55:45.147Z,83.53
2022-11-27T15:58:11.952Z,88.07
2022-11-27T16:00:39.871Z,64.53
2022-11-27T16:03:06.694Z,63.27
2022-11-27T16:05:33.807Z,85.93
2022-11-27T16:08:00.892Z,869.63
2022-11-27T16:10:28.057Z,1229.83
2022-11-27T16:12:55.448Z,1094.93
2022-11-27T16:15:23.348Z,311.17
2022-11-27T16:17:51.819Z,104.63
2022-11-27T16:20:18.922Z,70.67
2022-11-27T16:22:45.640Z,61.57
2022-11-27T16:25:16.726Z,127.03
2022-11-27T16:27:43.544Z,95.27
2022-11-27T16:30:12.414Z,137.93
2022-11-27T16:32:40.090Z,1693.90
2022-11-27T16:35:08.494Z,1999.90
2022-11-27T16:37:35.333Z,353.53
2022-11-27T16:40:03.759Z,226.97
2022-11-27T16:42:30.775Z,258.13
2022-11-27T16:44:57.939Z,184.40
2022-11-27T16:47:30.600Z,189.67
2022-11-27T16:50:01.077Z,1999.90
2022-11-27T16:52:28.664Z,1999.90
2022-11-27T16:54:56.603Z,1999.90
2022-11-27T16:57:23.711Z,611.47
2022-11-27T16:59:50.930Z,509.03
2022-11-27T17:02:19.276Z,531.90
2022-11-27T17:04:46.523Z,270.47
2022-11-27T17:07:13.333Z,319.73
2022-11-27T17:09:42.251Z,328.23
2022-11-27T17:12:08.996Z,428.63
2022-11-27T17:14:36.997Z,512.97
2022-11-27T17:17:05.697Z,197.60
2022-11-27T17:19:34.201Z,272.30
2022-11-27T17:22:01.905Z,314.97
2022-11-27T17:24:29.905Z,280.13
2022-11-27T17:26:56.738Z,273.53
2022-11-27T17:29:33.561Z,391.13
2022-11-27T17:32:02.553Z,433.00
2022-11-27T17:34:29.750Z,290.20
2022-11-27T17:36:57.614Z,184.13
2022-11-27T17:39:25.131Z,256.03
2022-11-27T17:41:51.975Z,478.43
2022-11-27T17:44:19.271Z,819.23
2022-11-27T17:46:49.984Z,1999.90
2022-11-27T17:49:19.532Z,1365.27
2022-11-27T17:51:46.829Z,397.40
2022-11-27T17:54:14.665Z,318.33
2022-11-27T17:56:41.519Z,354.93
2022-11-27T17:59:09.975Z,364.00
2022-11-27T18:01:37.217Z,277.40
2022-11-27T18:04:05.505Z,86.40
2022-11-27T18:06:33.418Z,72.53
2022-11-27T18:09:00.638Z,65.03
2022-11-27T18:11:30.158Z,193.47
2022-11-27T18:13:59.836Z,188.33
2022-11-27T18:16:31.021Z,314.00
2022-11-27T18:18:59.066Z,465.53
2022-11-27T18:21:30.382Z,113.67
2022-11-27T18:24:22.677Z,81.87
2022-11-27T18:27:07.172Z,69.73
2022-11-27T18:29:31.772Z,54.50
2022-11-27T18:31:58.622Z,61.97
2022-11-27T18:34:25.793Z,168.27
2022-11-27T18:36:57.195Z,125.27
2022-11-27T18:39:24.345Z,167.00
2022-11-27T18:41:51.451Z,80.23
2022-11-27T18:44:18.627Z,62.07
2022-11-27T18:46:45.622Z,63.77
2022-11-27T18:49:13.066Z,90.00
2022-11-27T18:51:40.738Z,82.13
2022-11-27T18:54:08.583Z,63.63
2022-11-27T18:56:37.124Z,63.87
2022-11-27T18:59:06.059Z,53.50
2022-11-27T19:01:41.475Z,60.23
2022-11-27T19:04:10.913Z,52.23
2022-11-27T19:06:38.834Z,63.83
2022-11-27T19:09:06.256Z,64.30
2022-11-27T19:11:34.129Z,62.77
2022-11-27T19:14:01.779Z,66.60
2022-11-27T19:16:31.803Z,61.50
2022-11-27T19:19:00.848Z,82.60
2022-11-27T19:21:30.001Z,100.07
2022-11-27T19:23:58.654Z,80.37
2022-11-27T19:26:29.582Z,75.83
2022-11-27T19:28:58.506Z,79.43
2022-11-27T19:31:25.964Z,58.60
2022-11-27T19:33:55.377Z,67.20
2022-11-27T19:36:23.055Z,55.63
2022-11-27T19:38:55.325Z,63.57
2022-11-27T19:41:23.255Z,148.40
2022-11-27T19:43:50.728Z,505.97
2022-11-27T19:46:28.952Z,331.00
2022-11-27T19:48:58.168Z,462.90
2022-11-27T19:51:26.346Z,227.33
2022-11-27T19:53:53.848Z,266.13
2022-11-27T19:56:20.819Z,169.63
2022-11-27T19:58:47.960Z,142.07
2022-11-27T20:01:17.191Z,140.33
2022-11-27T20:03:45.172Z,119.77
2022-11-27T20:06:15.147Z,103.17
2022-11-27T20:08:43.226Z,89.97
2022-11-27T20:11:12.882Z,82.33
2022-11-27T20:13:40.071Z,75.37
2022-11-27T20:16:08.781Z,79.33
2022-11-27T20:18:36.192Z,85.43
2022-11-27T20:21:08.469Z,174.50
2022-11-27T20:23:35.959Z,128.27
2022-11-27T20:26:05.506Z,95.30
2022-11-27T20:28:33.203Z,90.07
2022-11-27T20:31:02.994Z,115.97
2022-11-27T20:33:31.936Z,94.90
2022-11-27T20:35:58.769Z,86.47
2022-11-27T20:38:26.686Z,69.10
2022-11-27T20:40:53.543Z,67.37
2022-11-27T20:43:20.984Z,70.67
2022-11-27T20:45:51.684Z,80.60
2022-11-27T20:48:19.070Z,89.40
2022-11-27T20:50:51.327Z,96.17
2022-11-27T20:53:19.739Z,273.83
2022-11-27T20:55:47.436Z,414.03
2022-11-27T20:58:14.539Z,122.93
2022-11-27T21:00:41.669Z,90.60
2022-11-27T21:03:08.773Z,91.60
2022-11-27T21:05:35.520Z,89.43
2022-11-27T21:08:03.191Z,91.23
2022-11-27T21:10:29.965Z,96.33
2022-11-27T21:12:57.322Z,96.83
2022-11-27T21:15:24.115Z,86.40
2022-11-27T21:17:51.190Z,113.13
2022-11-27T21:20:18.612Z,80.23
2022-11-27T21:22:45.844Z,88.47
2022-11-27T21:25:13.303Z,90.33
2022-11-27T21:27:40.442Z,103.57
2022-11-27T21:30:07.741Z,90.57
2022-11-27T21:32:34.903Z,101.43
2022-11-27T21:35:01.836Z,84.90
2022-11-27T21:37:28.884Z,100.00
2022-11-27T21:39:56.440Z,89.60
2022-11-27T21:42:24.201Z,98.13
2022-11-27T21:44:51.656Z,93.90
2022-11-27T21:47:19.527Z,120.20
2022-11-27T21:49:49.760Z,100.93
2022-11-27T21:52:18.079Z,108.17
2022-11-27T21:54:45.062Z,96.23
2022-11-27T21:57:13.790Z,109.50
2022-11-27T21:59:42.463Z,137.20
2022-11-27T22:02:11.893Z,117.83
2022-11-27T22:04:38.771Z,131.80
2022-11-27T22:07:07.829Z,135.23
2022-11-27T22:09:34.634Z,130.77
2022-11-27T22:12:01.929Z,129.53
2022-11-27T22:14:28.918Z,144.03
2022-11-27T22:16:57.095Z,171.33
2022-11-27T22:19:24.032Z,141.30
2022-11-27T22:21:51.161Z,135.30
2022-11-27T22:24:19.912Z,138.87
2022-11-27T22:26:51.217Z,138.07
2022-11-27T22:29:18.024Z,179.77
2022-11-27T22:31:45.855Z,170.33
2022-11-27T22:34:16.091Z,135.90
2022-11-27T22:36:43.842Z,128.50
2022-11-27T22:39:10.716Z,126.97
2022-11-27T22:41:39.446Z,131.93
2022-11-27T22:44:11.576Z,147.83
2022-11-27T22:46:40.465Z,144.60
2022-11-27T22:49:07.569Z,143.30
2022-11-27T22:51:35.830Z,152.20
2022-11-27T22:54:03.873Z,133.17
2022-11-27T22:56:33.625Z,144.23
2022-11-27T22:59:30.523Z,147.63
2022-11-27T23:01:48.862Z,136.37
2022-11-27T23:04:16.672Z,149.70
2022-11-27T23:06:48.025Z,141.53
2022-11-27T23:09:16.423Z,139.10
2022-11-27T23:11:43.463Z,151.93
2022-11-27T23:14:10.247Z,154.77
2022-11-27T23:16:38.534Z,142.93
2022-11-27T23:19:05.408Z,142.60
2022-11-27T23:21:35.296Z,142.70
2022-11-27T23:24:02.046Z,158.67
2022-11-27T23:26:29.222Z,159.40
2022-11-27T23:28:56.234Z,158.67
2022-11-27T23:31:30.411Z,157.53
2022-11-27T23:33:58.500Z,152.97
2022-11-27T23:36:25.807Z,153.23
2022-11-27T23:38:52.740Z,136.80
2022-11-27T23:41:22.549Z,155.87
2022-11-27T23:43:50.051Z,165.13
2022-11-27T23:46:19.292Z,155.17
2022-11-27T23:48:46.289Z,156.07
2022-11-27T23:51:18.976Z,148.57
2022-11-27T23:53:46.013Z,173.67
2022-11-27T23:56:19.491Z,153.50
2022-11-27T23:58:47.539Z,158.53
